Terminal Aerodrome Forecast
Issued by NWS

Home | Current Version | Previous Version | Text Only | Print | Product List | Glossary On
Versions: 1 2 3 4 5 6 7 8 9 10 11 12 13 14 15 16 17 18 19 20 21 22
000
FTUS43 KABR 061120
TAFPIR
TAF
KPIR 061120Z 0612/0712 28021G34KT P6SM OVC022
     FM061500 29024G35KT P6SM BKN110
     FM061700 30026G38KT 6SM BLSN SCT120
     FM062300 30021G30KT P6SM SCT110=

USA.gov is the U.S. government's official web portal to all federal, state and local government web resources and services.